createdAt,value
2023-12-04T00:00:06.893Z,9.93
2023-12-04T00:03:40.604Z,10.50
2023-12-04T00:06:54.422Z,12.25
2023-12-04T00:10:23.863Z,12.27
2023-12-04T00:14:06.938Z,10.32
2023-12-04T00:17:43.238Z,9.80
2023-12-04T00:20:55.984Z,10.82
2023-12-04T00:24:17.686Z,15.70
2023-12-04T00:27:36.963Z,10.80
2023-12-04T00:30:47.602Z,11.93
2023-12-04T00:34:06.252Z,11.03
2023-12-04T00:37:27.046Z,13.90
2023-12-04T00:40:37.613Z,14.18
2023-12-04T00:43:44.384Z,14.50
2023-12-04T00:46:52.389Z,14.13
2023-12-04T00:49:56.864Z,12.40
2023-12-04T00:53:01.808Z,12.48
2023-12-04T00:56:13.776Z,12.73
2023-12-04T00:59:23.096Z,17.90
2023-12-04T01:02:45.873Z,12.43
2023-12-04T01:06:06.488Z,15.00
2023-12-04T01:09:15.812Z,16.33
2023-12-04T01:12:30.461Z,15.13
2023-12-04T01:15:46.027Z,17.08
2023-12-04T01:19:05.011Z,17.15
2023-12-04T01:22:37.499Z,16.50
2023-12-04T01:26:03.257Z,15.60
2023-12-04T01:32:52.588Z,16.45
2023-12-04T01:36:04.908Z,17.40
2023-12-04T01:39:20.667Z,14.43
2023-12-04T01:43:36.104Z,16.48
2023-12-04T01:47:33.624Z,12.60
2023-12-04T01:50:49.782Z,18.85
2023-12-04T01:54:07.480Z,17.10
2023-12-04T01:57:19.649Z,14.20
2023-12-04T02:00:28.572Z,14.98
2023-12-04T02:03:42.835Z,17.58
2023-12-04T02:06:51.828Z,15.93
2023-12-04T02:10:03.987Z,18.77
2023-12-04T02:13:26.730Z,14.30
2023-12-04T02:16:35.530Z,15.10
2023-12-04T02:19:39.942Z,17.45
2023-12-04T02:22:49.959Z,17.40
2023-12-04T02:26:11.777Z,17.00
2023-12-04T02:29:28.761Z,15.73
2023-12-04T02:32:40.852Z,16.73
2023-12-04T02:35:48.828Z,19.42
2023-12-04T02:39:30.843Z,17.83
2023-12-04T02:47:33.995Z,15.23
2023-12-04T02:51:10.328Z,19.27
2023-12-04T02:58:42.444Z,17.38
2023-12-04T03:02:12.441Z,14.68
2023-12-04T03:06:02.793Z,15.50
2023-12-04T03:09:48.622Z,15.13
2023-12-04T03:13:44.440Z,16.85
2023-12-04T03:17:19.473Z,20.13
2023-12-04T03:20:47.019Z,15.30
2023-12-04T03:24:04.233Z,18.47
2023-12-04T03:27:15.714Z,17.73
2023-12-04T03:30:33.457Z,17.35
2023-12-04T03:33:58.776Z,17.58
2023-12-04T03:37:06.261Z,17.90
2023-12-04T03:40:16.127Z,16.07
2023-12-04T03:43:49.106Z,17.73
2023-12-04T03:47:07.801Z,18.75
2023-12-04T03:50:17.814Z,18.45
2023-12-04T03:53:38.658Z,18.52
2023-12-04T03:56:48.887Z,14.33
2023-12-04T04:00:19.365Z,14.30
2023-12-04T04:03:41.865Z,13.00
2023-12-04T04:06:55.417Z,15.75
2023-12-04T04:10:05.961Z,10.63
2023-12-04T04:13:35.292Z,16.80
2023-12-04T04:16:47.877Z,17.88
2023-12-04T04:20:14.659Z,17.95
2023-12-04T04:23:34.258Z,15.98
2023-12-04T04:26:44.629Z,17.70
2023-12-04T04:29:55.282Z,14.30
2023-12-04T04:33:12.012Z,12.32
2023-12-04T04:36:27.890Z,16.95
2023-12-04T04:39:37.770Z,16.70
2023-12-04T04:42:42.715Z,15.77
2023-12-04T04:45:52.869Z,15.67
2023-12-04T04:49:00.407Z,18.52
2023-12-04T04:52:09.738Z,19.08
2023-12-04T04:55:46.257Z,21.77
2023-12-04T04:58:53.223Z,26.63
2023-12-04T05:01:59.802Z,18.77
2023-12-04T05:05:33.478Z,20.05
2023-12-04T05:08:41.639Z,17.73
2023-12-04T05:11:45.328Z,19.00
2023-12-04T05:14:48.502Z,18.83
2023-12-04T05:17:59.468Z,19.43
2023-12-04T05:21:22.178Z,25.27
2023-12-04T05:24:30.066Z,23.42
2023-12-04T05:27:40.097Z,21.52
2023-12-04T05:30:56.822Z,23.38
2023-12-04T05:34:04.555Z,17.73
2023-12-04T05:42:18.158Z,17.25
2023-12-04T05:46:06.202Z,22.92
2023-12-04T05:49:43.700Z,20.17
2023-12-04T05:52:51.711Z,26.37
2023-12-04T05:56:01.898Z,30.88
2023-12-04T05:59:21.567Z,27.85
2023-12-04T06:02:58.460Z,22.20
2023-12-04T06:06:11.156Z,19.40
2023-12-04T06:09:39.000Z,27.93
2023-12-04T06:13:47.373Z,21.15
2023-12-04T06:17:00.742Z,23.27
2023-12-04T06:24:51.719Z,20.88
2023-12-04T06:32:53.116Z,16.77
2023-12-04T06:36:47.691Z,18.92
2023-12-04T07:07:16.711Z,25.40
2023-12-04T07:11:54.494Z,28.83
2023-12-04T07:40:15.462Z,57.80
2023-12-04T07:43:27.041Z,37.15
2023-12-04T07:47:14.329Z,34.73
2023-12-04T07:58:31.790Z,41.38
2023-12-04T08:06:07.401Z,38.30
2023-12-04T08:09:19.051Z,33.20
2023-12-04T08:35:33.043Z,36.67
2023-12-04T08:38:59.916Z,47.20
2023-12-04T08:54:34.231Z,30.83
2023-12-04T12:33:53.561Z,9.77
2023-12-04T12:37:48.219Z,9.90
2023-12-04T12:41:30.690Z,10.07
2023-12-04T12:45:00.378Z,11.50
2023-12-04T12:48:23.747Z,11.43
2023-12-04T12:51:34.874Z,8.27
2023-12-04T12:58:25.729Z,11.80
2023-12-04T13:02:02.754Z,11.57
2023-12-04T13:05:26.040Z,12.18
2023-12-04T13:08:52.316Z,11.68
2023-12-04T13:12:08.200Z,11.85
2023-12-04T13:15:33.378Z,12.10
2023-12-04T13:19:26.852Z,15.13
2023-12-04T13:23:23.429Z,16.77
2023-12-04T13:26:50.404Z,10.77
2023-12-04T13:30:07.945Z,15.32
2023-12-04T13:33:46.033Z,14.03
2023-12-04T13:37:10.084Z,14.23
2023-12-04T13:43:52.510Z,11.60
2023-12-04T13:46:59.979Z,13.88
2023-12-04T13:50:03.203Z,15.47
2023-12-04T13:53:08.112Z,12.73
2023-12-04T13:56:26.908Z,11.27
2023-12-04T13:59:36.745Z,15.98
2023-12-04T14:02:39.565Z,16.08
2023-12-04T14:05:48.686Z,13.57
2023-12-04T14:09:02.392Z,17.92
2023-12-04T14:12:10.435Z,13.82
2023-12-04T14:15:21.519Z,18.13
2023-12-04T14:18:28.508Z,12.93
2023-12-04T14:21:33.069Z,13.87
2023-12-04T14:24:41.770Z,13.45
2023-12-04T14:27:48.519Z,16.52
2023-12-04T14:30:55.799Z,15.63
2023-12-04T14:33:58.362Z,13.25
2023-12-04T14:37:03.119Z,15.00
2023-12-04T14:40:05.882Z,15.68
2023-12-04T14:43:21.038Z,18.35
2023-12-04T14:46:24.296Z,37.35
2023-12-04T14:49:29.546Z,16.70
2023-12-04T14:52:35.191Z,16.33
2023-12-04T14:56:11.074Z,14.55
2023-12-04T14:59:34.074Z,14.35
2023-12-04T15:02:58.236Z,19.50
2023-12-04T15:06:01.275Z,16.50
2023-12-04T15:09:26.904Z,14.60
2023-12-04T15:12:57.087Z,17.42
2023-12-04T15:16:22.502Z,17.65
2023-12-04T15:19:39.012Z,18.55
2023-12-04T15:22:43.487Z,20.92
2023-12-04T15:25:46.873Z,16.67
2023-12-04T15:28:51.399Z,22.65
2023-12-04T15:31:55.573Z,21.98
2023-12-04T15:35:01.976Z,23.48
2023-12-04T15:38:06.533Z,24.33
2023-12-04T15:41:14.416Z,22.50
2023-12-04T15:44:16.891Z,26.48
2023-12-04T15:47:22.208Z,22.85
2023-12-04T15:50:26.616Z,23.85
2023-12-04T15:53:30.088Z,26.17
2023-12-04T15:56:32.370Z,25.40
2023-12-04T15:59:42.812Z,26.05
2023-12-04T16:03:54.435Z,27.33
2023-12-04T16:07:25.678Z,28.55
2023-12-04T16:10:51.051Z,22.23
2023-12-04T16:17:48.429Z,16.15
2023-12-04T16:21:40.102Z,19.25
2023-12-04T16:24:51.506Z,11.25
2023-12-04T16:28:17.818Z,18.17
2023-12-04T16:31:24.059Z,14.50
2023-12-04T16:34:31.457Z,18.00
2023-12-04T16:37:43.057Z,17.65
2023-12-04T16:40:45.206Z,17.10
2023-12-04T16:43:49.913Z,16.55
2023-12-04T16:46:58.885Z,18.33
2023-12-04T16:50:00.975Z,17.48
2023-12-04T16:53:03.216Z,14.20
2023-12-04T16:56:15.071Z,19.52
2023-12-04T16:59:18.649Z,19.15
2023-12-04T17:02:20.865Z,19.40
2023-12-04T17:05:23.628Z,22.65
2023-12-04T17:08:26.368Z,18.38
2023-12-04T17:11:29.546Z,16.23
2023-12-04T17:14:31.923Z,16.92
2023-12-04T17:17:37.165Z,18.60
2023-12-04T17:20:40.130Z,18.33
2023-12-04T17:23:42.886Z,15.25
2023-12-04T17:26:48.502Z,15.57
2023-12-04T17:29:50.615Z,15.10
2023-12-04T17:32:53.165Z,18.90
2023-12-04T17:35:57.643Z,19.38
2023-12-04T17:38:59.971Z,17.45
2023-12-04T17:42:02.305Z,16.17
2023-12-04T17:45:05.588Z,14.43
2023-12-04T17:48:09.152Z,17.73
2023-12-04T17:51:21.847Z,16.90
2023-12-04T17:54:25.375Z,12.43
2023-12-04T17:57:28.235Z,19.27
2023-12-04T18:00:35.368Z,22.10
2023-12-04T18:03:39.755Z,16.87
2023-12-04T18:06:46.053Z,18.50
2023-12-04T18:09:49.952Z,14.23
2023-12-04T18:12:53.761Z,17.73
2023-12-04T18:15:57.397Z,19.25
2023-12-04T18:19:00.221Z,18.77
2023-12-04T18:22:02.438Z,25.77
2023-12-04T18:25:05.095Z,13.95
2023-12-04T18:28:11.693Z,20.73
2023-12-04T18:31:15.744Z,20.13
2023-12-04T18:34:22.483Z,20.80
2023-12-04T18:37:36.985Z,20.67
2023-12-04T18:40:39.939Z,22.88
2023-12-04T18:43:42.774Z,24.17
2023-12-04T18:46:45.703Z,22.50
2023-12-04T18:49:54.359Z,17.23
2023-12-04T18:52:57.099Z,18.35
2023-12-04T18:55:59.137Z,21.00
2023-12-04T18:59:05.780Z,20.35
2023-12-04T19:02:09.767Z,22.20
2023-12-04T19:05:12.759Z,19.30
2023-12-04T19:08:19.943Z,22.73
2023-12-04T19:11:22.040Z,24.42
2023-12-04T19:14:25.452Z,25.10
2023-12-04T19:17:28.085Z,22.52
2023-12-04T19:20:32.350Z,20.87
2023-12-04T19:23:35.181Z,21.38
2023-12-04T19:26:37.666Z,22.80
2023-12-04T19:29:40.503Z,25.55
2023-12-04T19:32:44.406Z,22.38
2023-12-04T19:35:46.968Z,25.07
2023-12-04T19:38:49.402Z,20.85
2023-12-04T19:41:51.817Z,26.05
2023-12-04T19:44:57.128Z,23.75
2023-12-04T19:48:02.087Z,23.73
2023-12-04T19:51:06.034Z,19.33
2023-12-04T19:54:08.578Z,21.92
2023-12-04T19:57:14.555Z,25.58
2023-12-04T20:00:17.876Z,22.17
2023-12-04T20:03:23.872Z,16.98
2023-12-04T20:06:28.423Z,24.67
2023-12-04T20:09:32.836Z,23.83
2023-12-04T20:12:36.199Z,26.08
2023-12-04T20:15:38.869Z,21.63
2023-12-04T20:18:43.165Z,22.42
2023-12-04T20:21:45.945Z,20.53
2023-12-04T20:24:49.611Z,23.52
2023-12-04T20:27:52.729Z,23.42
2023-12-04T20:30:56.637Z,22.58
2023-12-04T20:33:59.077Z,23.58
2023-12-04T20:37:02.643Z,23.07
2023-12-04T20:40:06.278Z,24.05
2023-12-04T20:43:10.089Z,19.92
2023-12-04T20:46:14.940Z,24.33
2023-12-04T20:49:19.546Z,26.75
2023-12-04T20:52:21.954Z,24.83
2023-12-04T20:55:28.233Z,22.77
2023-12-04T20:58:31.167Z,24.58
2023-12-04T21:01:34.030Z,26.70
2023-12-04T21:04:36.575Z,16.85
2023-12-04T21:07:39.132Z,20.50
2023-12-04T21:10:42.290Z,23.67
2023-12-04T21:13:44.606Z,21.30
2023-12-04T21:16:55.366Z,32.65
2023-12-04T21:20:04.656Z,18.25
2023-12-04T21:23:10.817Z,26.07
2023-12-04T21:26:13.557Z,24.30
2023-12-04T21:29:15.813Z,25.55
2023-12-04T21:32:18.840Z,23.45
2023-12-04T21:35:21.133Z,21.80
2023-12-04T21:38:23.393Z,27.47
2023-12-04T21:41:25.562Z,28.15
2023-12-04T21:44:27.728Z,20.83
2023-12-04T21:47:29.932Z,25.17
2023-12-04T21:50:31.953Z,26.00
2023-12-04T21:53:35.759Z,28.63
2023-12-04T21:56:38.514Z,26.85
2023-12-04T21:59:41.073Z,19.48
2023-12-04T22:02:46.165Z,25.80
2023-12-04T22:05:50.513Z,22.75
2023-12-04T22:08:53.589Z,20.83
2023-12-04T22:11:57.068Z,29.33
2023-12-04T22:14:59.693Z,23.95
2023-12-04T22:18:02.871Z,21.05
2023-12-04T22:21:06.073Z,28.88
2023-12-04T22:24:09.200Z,28.40
2023-12-04T22:27:11.863Z,22.92
2023-12-04T22:30:14.365Z,24.98
2023-12-04T22:33:18.217Z,25.83
2023-12-04T22:36:20.966Z,22.52
2023-12-04T22:39:23.850Z,20.07
2023-12-04T22:42:26.159Z,20.08
2023-12-04T22:45:28.767Z,24.20
2023-12-04T22:48:32.425Z,20.52
2023-12-04T22:51:34.665Z,26.50
2023-12-04T22:54:37.524Z,33.57
2023-12-04T22:57:40.049Z,30.35
2023-12-04T23:00:43.312Z,22.92
2023-12-04T23:03:45.562Z,19.55
2023-12-04T23:06:48.721Z,26.45
2023-12-04T23:09:51.269Z,22.50
2023-12-04T23:12:57.904Z,24.20
2023-12-04T23:16:00.263Z,27.90
2023-12-04T23:19:04.886Z,25.02
2023-12-04T23:22:08.465Z,19.63
2023-12-04T23:25:11.009Z,27.33
2023-12-04T23:28:13.668Z,31.70
2023-12-04T23:31:19.117Z,28.23
2023-12-04T23:34:22.890Z,31.05
2023-12-04T23:37:26.738Z,24.90
2023-12-04T23:40:28.984Z,27.93
2023-12-04T23:43:31.452Z,26.63
2023-12-04T23:46:33.762Z,26.67
2023-12-04T23:49:37.357Z,28.55
2023-12-04T23:52:39.872Z,29.50
2023-12-04T23:55:43.557Z,28.93
2023-12-04T23:58:45.892Z,25.92
